createdAt,value
2019-02-21T00:03:03.559Z,7.14
2019-02-21T00:08:06.706Z,7.26
2019-02-21T00:13:09.028Z,7.39
2019-02-21T00:18:11.250Z,7.47
2019-02-21T00:23:18.077Z,7.50
2019-02-21T00:28:20.061Z,7.42
2019-02-21T00:33:24.523Z,7.58
2019-02-21T00:38:26.698Z,7.62
2019-02-21T00:43:33.498Z,7.54
2019-02-21T00:48:35.618Z,7.56
2019-02-21T00:53:38.374Z,7.42
2019-02-21T00:58:40.765Z,7.81
2019-02-21T01:03:43.616Z,7.32
2019-02-21T01:08:47.602Z,7.57
2019-02-21T01:13:50.130Z,7.44
2019-02-21T01:18:52.675Z,7.27
2019-02-21T01:23:57.726Z,7.43
2019-02-21T01:28:59.829Z,7.29
2019-02-21T01:34:02.011Z,7.16
2019-02-21T01:39:07.016Z,7.28
2019-02-21T01:44:09.043Z,7.13
2019-02-21T01:49:13.957Z,7.18
2019-02-21T01:54:17.358Z,6.93
2019-02-21T01:59:19.446Z,6.94
2019-02-21T02:04:23.770Z,6.73
2019-02-21T02:09:25.818Z,6.91
2019-02-21T02:14:27.831Z,6.76
2019-02-21T02:19:31.176Z,6.66
2019-02-21T02:24:36.506Z,7.02
2019-02-21T02:29:38.786Z,7.05
2019-02-21T02:34:41.072Z,6.96
2019-02-21T02:39:44.665Z,7.04
2019-02-21T02:44:46.702Z,6.77
2019-02-21T02:49:49.834Z,6.81
2019-02-21T02:54:51.836Z,6.69
2019-02-21T03:00:01.344Z,6.58
2019-02-21T03:05:04.054Z,6.68
2019-02-21T03:10:09.152Z,6.83
2019-02-21T03:15:12.259Z,6.68
2019-02-21T03:20:14.417Z,6.92
2019-02-21T03:25:18.253Z,7.19
2019-02-21T03:30:22.049Z,6.98
2019-02-21T03:35:24.086Z,6.89
2019-02-21T03:40:26.425Z,6.71
2019-02-21T03:45:28.539Z,7.01
2019-02-21T03:50:32.222Z,6.62
2019-02-21T03:55:35.397Z,6.59
2019-02-21T04:00:38.347Z,6.68
2019-02-21T04:05:42.891Z,6.60
2019-02-21T04:10:44.957Z,6.61
2019-02-21T04:15:47.087Z,6.62
2019-02-21T04:20:49.120Z,6.55
2019-02-21T04:25:54.168Z,6.42
2019-02-21T04:30:56.476Z,6.41
2019-02-21T04:35:58.484Z,6.56
2019-02-21T04:41:00.770Z,6.31
2019-02-21T04:46:04.794Z,6.20
2019-02-21T04:51:06.967Z,6.25
2019-02-21T04:56:09.020Z,6.31
2019-02-21T05:01:11.340Z,6.37
2019-02-21T05:06:13.346Z,6.36
2019-02-21T05:11:15.375Z,6.37
2019-02-21T05:16:17.376Z,6.29
2019-02-21T05:21:23.699Z,6.40
2019-02-21T05:26:30.709Z,6.39
2019-02-21T05:31:51.089Z,6.32
2019-02-21T05:37:15.803Z,6.12
2019-02-21T05:42:30.238Z,6.20
2019-02-21T05:47:49.941Z,6.18
2019-02-21T05:53:02.165Z,6.11
2019-02-21T05:58:20.188Z,6.15
2019-02-21T06:03:38.624Z,6.16
2019-02-21T06:08:59.209Z,6.16
2019-02-21T06:14:19.550Z,6.16
2019-02-21T06:19:39.717Z,6.50
2019-02-21T06:24:55.770Z,6.71
2019-02-21T06:30:28.417Z,6.91
2019-02-21T06:35:30.477Z,6.78
2019-02-21T06:40:32.929Z,6.92
2019-02-21T06:45:34.926Z,7.04
2019-02-21T06:50:39.773Z,6.95
2019-02-21T06:55:41.856Z,7.04
2019-02-21T07:00:46.488Z,7.02
2019-02-21T07:05:50.347Z,7.12
2019-02-21T07:10:52.963Z,7.03
2019-02-21T07:15:54.999Z,7.08
2019-02-21T07:20:58.867Z,7.18
2019-02-21T07:26:05.791Z,7.34
2019-02-21T07:31:07.994Z,7.43
2019-02-21T07:36:11.078Z,7.46
2019-02-21T07:41:13.533Z,7.69
2019-02-21T07:46:17.803Z,7.68
2019-02-21T07:51:24.269Z,7.76
2019-02-21T07:56:41.156Z,7.79
2019-02-21T08:01:34.567Z,8.12
2019-02-21T08:06:39.124Z,8.09
2019-02-21T08:11:41.560Z,8.17
2019-02-21T08:16:43.629Z,8.35
2019-02-21T08:21:49.727Z,8.44
2019-02-21T08:26:55.408Z,8.22
2019-02-21T08:31:57.460Z,8.26
2019-02-21T08:36:59.573Z,8.70
2019-02-21T08:42:01.756Z,9.10
2019-02-21T08:47:05.930Z,9.25
2019-02-21T08:52:09.244Z,9.41
2019-02-21T08:57:13.227Z,9.78
2019-02-21T09:02:18.207Z,9.71
2019-02-21T09:07:23.504Z,9.87
2019-02-21T09:12:25.634Z,9.93
2019-02-21T09:17:27.694Z,10.42
2019-02-21T09:22:32.764Z,10.58
2019-02-21T09:27:36.991Z,9.99
2019-02-21T09:32:41.898Z,9.60
2019-02-21T09:37:44.674Z,10.15
2019-02-21T09:42:47.852Z,10.23
2019-02-21T09:47:49.855Z,10.10
2019-02-21T09:52:51.913Z,10.07
2019-02-21T09:57:54.325Z,10.10
2019-02-21T10:02:56.860Z,10.34
2019-02-21T10:07:59.464Z,10.90
2019-02-21T10:13:01.484Z,11.00
2019-02-21T10:18:03.979Z,11.17
2019-02-21T10:23:08.187Z,11.07
2019-02-21T10:28:10.216Z,10.50
2019-02-21T10:33:16.445Z,10.26
2019-02-21T10:38:28.170Z,9.99
2019-02-21T10:43:30.895Z,9.59
2019-02-21T10:48:33.157Z,9.42
2019-02-21T10:53:35.355Z,9.40
2019-02-21T10:58:37.410Z,9.85
2019-02-21T11:03:39.609Z,10.09
2019-02-21T11:08:41.693Z,10.53
2019-02-21T11:13:43.899Z,10.50
2019-02-21T11:18:45.916Z,10.40
2019-02-21T11:23:52.808Z,10.75
2019-02-21T11:28:54.821Z,11.38
2019-02-21T11:33:58.245Z,10.88
2019-02-21T11:39:03.706Z,11.59
2019-02-21T11:44:07.623Z,11.74
2019-02-21T11:49:14.968Z,11.84
2019-02-21T11:54:26.581Z,12.12
2019-02-21T11:59:25.252Z,12.02
2019-02-21T12:04:27.337Z,12.36
2019-02-21T12:09:37.299Z,12.46
2019-02-21T12:14:41.317Z,12.65
2019-02-21T12:19:43.650Z,12.76
2019-02-21T12:24:45.643Z,12.76
2019-02-21T12:29:48.002Z,12.63
2019-02-21T12:34:53.053Z,12.85
2019-02-21T12:39:55.396Z,13.56
2019-02-21T12:44:59.555Z,13.56
2019-02-21T12:50:02.472Z,12.52
2019-02-21T12:55:06.534Z,12.76
2019-02-21T13:00:15.833Z,12.96
2019-02-21T13:05:20.639Z,13.09
2019-02-21T13:10:23.109Z,12.65
2019-02-21T13:15:25.146Z,12.78
2019-02-21T13:20:27.663Z,12.89
2019-02-21T13:25:29.938Z,12.67
2019-02-21T13:30:32.299Z,13.44
2019-02-21T13:35:34.704Z,14.06
2019-02-21T13:40:36.917Z,12.91
2019-02-21T13:45:39.224Z,12.57
2019-02-21T13:50:43.550Z,12.68
2019-02-21T13:55:47.217Z,12.32
2019-02-21T14:00:49.468Z,12.19
2019-02-21T14:05:51.599Z,12.03
2019-02-21T14:10:53.732Z,11.94
2019-02-21T14:15:55.729Z,11.94
2019-02-21T14:21:01.215Z,11.74
2019-02-21T14:26:03.330Z,11.67
2019-02-21T14:31:07.389Z,11.67
2019-02-21T14:36:15.438Z,11.56
2019-02-21T14:41:16.806Z,11.09
2019-02-21T14:46:18.944Z,11.13
2019-02-21T14:51:23.875Z,11.00
2019-02-21T14:56:25.940Z,11.15
2019-02-21T15:01:28.073Z,10.71
2019-02-21T15:06:30.075Z,10.98
2019-02-21T15:11:32.240Z,10.70
2019-02-21T15:16:34.264Z,10.67
2019-02-21T15:21:45.265Z,10.47
2019-02-21T15:26:50.106Z,10.18
2019-02-21T15:31:53.893Z,10.19
2019-02-21T15:36:55.994Z,10.12
2019-02-21T15:41:58.261Z,10.17
2019-02-21T15:47:02.416Z,10.19
2019-02-21T15:52:05.590Z,10.14
2019-02-21T15:57:07.870Z,10.24
2019-02-21T16:02:09.896Z,9.99
2019-02-21T16:07:11.932Z,9.92
2019-02-21T16:12:14.432Z,9.87
2019-02-21T16:17:16.856Z,10.26
2019-02-21T16:22:19.084Z,10.17
2019-02-21T16:27:21.050Z,10.02
2019-02-21T16:32:23.264Z,9.99
2019-02-21T16:37:25.375Z,9.99
2019-02-21T16:42:27.394Z,9.94
2019-02-21T16:47:29.454Z,9.78
2019-02-21T16:52:31.494Z,9.84
2019-02-21T16:57:33.573Z,9.76
2019-02-21T17:02:39.731Z,9.70
2019-02-21T17:07:41.699Z,9.68
2019-02-21T17:12:44.060Z,9.82
2019-02-21T17:17:46.104Z,9.92
2019-02-21T17:22:50.112Z,9.83
2019-02-21T17:27:52.197Z,9.81
2019-02-21T17:32:54.439Z,9.53
2019-02-21T17:37:56.466Z,9.66
2019-02-21T17:42:58.891Z,9.71
2019-02-21T17:48:01.021Z,9.74
2019-02-21T17:53:03.487Z,9.53
2019-02-21T17:58:12.401Z,9.64
2019-02-21T18:03:16.256Z,9.75
2019-02-21T18:08:22.728Z,9.95
2019-02-21T18:13:29.577Z,9.79
2019-02-21T18:18:38.952Z,9.71
2019-02-21T18:23:43.754Z,9.76
2019-02-21T18:28:46.989Z,9.70
2019-02-21T18:33:49.267Z,9.72
2019-02-21T18:38:52.416Z,9.71
2019-02-21T18:43:59.467Z,9.68
2019-02-21T18:49:01.613Z,9.72
2019-02-21T18:54:10.918Z,9.73
2019-02-21T18:59:13.671Z,9.65
2019-02-21T19:04:19.366Z,9.74
2019-02-21T19:09:26.852Z,9.85
2019-02-21T19:14:29.312Z,9.68
2019-02-21T19:19:33.758Z,9.90
2019-02-21T19:24:37.188Z,9.81
2019-02-21T19:29:39.632Z,9.85
2019-02-21T19:34:41.630Z,9.83
2019-02-21T19:39:47.402Z,9.91
2019-02-21T19:44:50.043Z,9.96
2019-02-21T19:49:54.523Z,10.04
2019-02-21T19:54:59.015Z,9.88
2019-02-21T20:00:02.893Z,9.87
2019-02-21T20:05:08.876Z,9.90
2019-02-21T20:10:11.849Z,9.89
2019-02-21T20:15:14.680Z,9.84
2019-02-21T20:20:18.260Z,9.98
2019-02-21T20:25:22.563Z,9.94
2019-02-21T20:30:26.611Z,9.76
2019-02-21T20:35:31.289Z,9.85
2019-02-21T20:40:34.755Z,9.90
2019-02-21T20:45:36.708Z,10.04
2019-02-21T20:50:40.203Z,9.91
2019-02-21T20:55:44.008Z,9.90
2019-02-21T21:00:46.267Z,9.82
2019-02-21T21:05:48.789Z,9.93
2019-02-21T21:10:50.924Z,9.91
2019-02-21T21:15:55.819Z,9.89
2019-02-21T21:20:59.133Z,9.85
2019-02-21T21:26:03.332Z,9.92
2019-02-21T21:31:05.667Z,9.85
2019-02-21T21:36:08.445Z,9.92
2019-02-21T21:41:10.701Z,9.88
2019-02-21T21:46:13.497Z,9.73
2019-02-21T21:51:15.603Z,9.78
2019-02-21T21:56:17.613Z,9.80
2019-02-21T22:01:19.913Z,9.85
2019-02-21T22:06:22.141Z,9.75
2019-02-21T22:11:24.415Z,9.81
2019-02-21T22:16:26.429Z,9.77
2019-02-21T22:21:28.457Z,9.73
2019-02-21T22:26:30.467Z,9.70
2019-02-21T22:31:32.509Z,9.72
2019-02-21T22:36:34.510Z,9.68
2019-02-21T22:41:38.175Z,9.80
2019-02-21T22:46:40.197Z,9.59
2019-02-21T22:51:42.613Z,9.70
2019-02-21T22:56:44.621Z,9.69
2019-02-21T23:01:47.521Z,9.71
2019-02-21T23:07:26.480Z,9.53
2019-02-21T23:12:31.352Z,9.55
2019-02-21T23:17:33.344Z,9.54
2019-02-21T23:22:35.721Z,9.60
2019-02-21T23:27:39.528Z,9.60
2019-02-21T23:32:41.584Z,9.54
2019-02-21T23:37:43.703Z,9.62
2019-02-21T23:42:45.985Z,9.64
2019-02-21T23:47:49.928Z,9.61
2019-02-21T23:52:52.296Z,9.63
2019-02-21T23:57:54.464Z,9.65
